Time;durP1;ratioP1;P1;durP2;ratioP2;P2;SDS_P1;SDS_P2;PMS_P1;PMS_P2;Temp;Humidity;BMP_temperature;BMP_pressure;BME280_temperature;BME280_humidity;BME280_pressure;Samples;Min_cycle;Max_cycle;Signal;HPM_P1;HPM_P2
2023/03/31 00:01:34;;;;;;;6.07;2.10;;;12.70;71.60;;;;;;4991122;28;20465;-72
2023/03/31 00:04:03;;;;;;;4.50;1.90;;;12.70;71.60;;;;;;4987879;28;20458;-73
2023/03/31 00:06:36;;;;;;;5.53;2.57;;;12.70;71.60;;;;;;4991630;28;20445;-72
2023/03/31 00:09:06;;;;;;;5.10;2.43;;;12.70;71.40;;;;;;4989215;28;20464;-72
2023/03/31 00:11:31;;;;;;;5.57;2.40;;;12.60;71.60;;;;;;4990506;28;20425;-74
2023/03/31 00:13:57;;;;;;;4.10;2.30;;;12.70;71.70;;;;;;4989363;28;20475;-72
2023/03/31 00:16:23;;;;;;;4.60;2.30;;;12.60;71.80;;;;;;4994613;28;20274;-73
2023/03/31 00:18:50;;;;;;;7.93;2.57;;;12.50;72.10;;;;;;4990777;28;20265;-72
2023/03/31 00:21:28;;;;;;;6.40;2.80;;;12.50;72.30;;;;;;4990735;28;20469;-72
2023/03/31 00:23:57;;;;;;;8.07;2.57;;;12.60;72.30;;;;;;4984619;28;20461;-73
2023/03/31 00:26:23;;;;;;;5.97;2.30;;;12.60;71.70;;;;;;4990706;28;20888;-73
2023/03/31 00:28:49;;;;;;;4.97;2.80;;;12.60;72.30;;;;;;4990441;28;20501;-72
2023/03/31 00:31:15;;;;;;;6.57;2.70;;;12.60;72.10;;;;;;4989979;28;20422;-73
2023/03/31 00:33:41;;;;;;;6.50;2.77;;;12.60;72.10;;;;;;4986095;28;20504;-72
2023/03/31 00:36:07;;;;;;;5.50;2.60;;;12.60;72.30;;;;;;4988290;28;20565;-71
2023/03/31 00:38:33;;;;;;;11.70;2.80;;;12.60;72.30;;;;;;4991164;28;20186;-72
2023/03/31 00:40:59;;;;;;;5.00;2.37;;;12.60;72.40;;;;;;4989137;28;20461;-73
2023/03/31 00:43:35;;;;;;;8.37;3.13;;;12.50;72.40;;;;;;4988129;28;21806;-73
2023/03/31 00:46:16;;;;;;;6.03;2.50;;;12.40;72.40;;;;;;4987654;28;20447;-72
2023/03/31 00:48:56;;;;;;;3.93;2.33;;;12.50;72.70;;;;;;4985546;28;20421;-74
2023/03/31 00:51:27;;;;;;;6.30;2.80;;;12.40;72.10;;;;;;4991584;28;20417;-71
2023/03/31 00:53:58;;;;;;;7.50;2.50;;;12.50;72.30;;;;;;4986991;28;20496;-73
2023/03/31 00:56:27;;;;;;;8.20;2.77;;;12.50;72.30;;;;;;4993652;28;20516;-71
2023/03/31 00:58:59;;;;;;;11.07;3.23;;;12.50;72.40;;;;;;4995629;28;20790;-72
2023/03/31 01:01:25;;;;;;;8.30;3.20;;;12.50;72.40;;;;;;4990022;28;20473;-73
2023/03/31 01:03:51;;;;;;;10.17;2.77;;;12.30;72.70;;;;;;4991987;28;20536;-72
2023/03/31 01:06:18;;;;;;;7.13;3.03;;;12.30;72.90;;;;;;4989841;28;20228;-71
2023/03/31 01:08:46;;;;;;;6.80;2.60;;;12.30;72.70;;;;;;4990144;28;20425;-72
2023/03/31 01:11:15;;;;;;;6.80;2.53;;;12.30;72.90;;;;;;4992048;28;20511;-73
2023/03/31 01:13:44;;;;;;;5.37;2.43;;;12.30;72.90;;;;;;4992246;28;21015;-73
2023/03/31 01:16:10;;;;;;;7.93;2.50;;;12.30;72.90;;;;;;4990093;28;20434;-73
2023/03/31 01:18:36;;;;;;;8.53;2.97;;;12.30;72.70;;;;;;5001559;28;20459;-72
2023/03/31 01:21:50;;;;;;;4.73;2.40;;;12.30;72.90;;;;;;5007131;28;20457;-72
2023/03/31 01:24:46;;;;;;;6.27;2.60;;;12.40;72.70;;;;;;5005658;28;20430;-71
2023/03/31 01:27:36;;;;;;;8.97;2.53;;;12.40;72.30;;;;;;5006218;28;20774;-72
2023/03/31 01:30:24;;;;;;;6.90;2.70;;;12.50;72.30;;;;;;5004002;28;20410;-72
2023/03/31 01:33:21;;;;;;;8.93;2.80;;;12.50;71.70;;;;;;5003947;28;20506;-72
2023/03/31 01:36:00;;;;;;;6.47;3.00;;;12.70;71.10;;;;;;5004909;28;20429;-72
2023/03/31 01:38:53;;;;;;;5.43;2.83;;;12.80;70.80;;;;;;5003347;28;20493;-72
2023/03/31 01:41:34;;;;;;;5.87;2.57;;;12.80;70.70;;;;;;4987831;28;20496;-72
2023/03/31 01:44:18;;;;;;;4.87;2.50;;;12.90;70.70;;;;;;4993158;28;20457;-72
2023/03/31 01:46:53;;;;;;;8.47;2.83;;;12.90;70.70;;;;;;4994721;28;20471;-72
2023/03/31 01:49:24;;;;;;;8.37;3.30;;;12.90;70.70;;;;;;4993789;28;20559;-71
2023/03/31 01:52:02;;;;;;;6.43;2.73;;;12.90;70.50;;;;;;4992295;28;20505;-72
2023/03/31 01:54:44;;;;;;;5.07;2.67;;;12.80;71.00;;;;;;4988615;28;20995;-72
2023/03/31 01:57:19;;;;;;;6.00;2.90;;;12.70;71.60;;;;;;4986181;28;20872;-72
2023/03/31 02:00:00;;;;;;;8.20;3.10;;;12.70;71.60;;;;;;4993906;28;20421;-73
2023/03/31 02:02:35;;;;;;;5.03;2.60;;;12.60;72.30;;;;;;4993739;28;20554;-71
2023/03/31 02:05:11;;;;;;;7.37;2.90;;;12.50;72.40;;;;;;4998131;28;20449;-71
2023/03/31 02:07:44;;;;;;;11.17;3.43;;;12.40;72.70;;;;;;4992753;28;20418;-73
2023/03/31 02:10:12;;;;;;;5.53;2.30;;;12.40;72.70;;;;;;4990625;28;20429;-72
2023/03/31 02:12:39;;;;;;;7.10;2.93;;;12.40;72.90;;;;;;4988111;28;20818;-71
2023/03/31 02:15:10;;;;;;;12.63;2.33;;;12.40;73.00;;;;;;4994796;28;20417;-73
2023/03/31 02:17:39;;;;;;;5.33;2.60;;;12.40;72.90;;;;;;4986838;28;20928;-72
2023/03/31 02:20:10;;;;;;;9.50;2.53;;;12.40;73.00;;;;;;4987225;28;20445;-73
2023/03/31 02:22:39;;;;;;;8.90;3.27;;;12.40;73.20;;;;;;4993356;28;20520;-72
2023/03/31 02:25:09;;;;;;;8.63;2.63;;;12.40;73.70;;;;;;4989268;28;20418;-73
2023/03/31 02:27:41;;;;;;;6.03;2.80;;;12.30;74.30;;;;;;4986091;28;20521;-72
2023/03/31 02:30:08;;;;;;;10.07;2.67;;;12.20;75.40;;;;;;4991879;28;21003;-72
2023/03/31 02:32:38;;;;;;;10.20;2.90;;;12.00;75.80;;;;;;4990328;28;20465;-73
2023/03/31 02:35:06;;;;;;;7.53;2.40;;;12.10;76.20;;;;;;4991686;28;20421;-73
2023/03/31 02:37:32;;;;;;;7.60;2.77;;;12.00;76.40;;;;;;4994432;28;20510;-73
2023/03/31 02:40:04;;;;;;;7.77;2.93;;;12.00;76.70;;;;;;5006690;28;20422;-73
2023/03/31 02:42:29;;;;;;;8.60;3.17;;;11.90;76.50;;;;;;5004594;28;20514;-72
2023/03/31 02:45:03;;;;;;;7.17;2.53;;;11.90;76.70;;;;;;5009709;28;20433;-72
2023/03/31 02:47:28;;;;;;;10.73;2.77;;;11.90;76.40;;;;;;4990515;28;20430;-72
2023/03/31 02:49:58;;;;;;;6.13;2.60;;;12.00;76.20;;;;;;4991358;28;20453;-72
2023/03/31 02:52:41;;;;;;;4.27;2.83;;;12.10;76.20;;;;;;4989307;28;20625;-72
2023/03/31 02:55:31;;;;;;;3.70;2.63;;;12.10;76.10;;;;;;4992049;28;20422;-73
2023/03/31 02:58:05;;;;;;;7.63;3.13;;;12.10;75.40;;;;;;4994049;28;20500;-72
2023/03/31 03:00:50;;;;;;;5.03;3.23;;;12.10;74.90;;;;;;4987170;28;20547;-72
2023/03/31 03:03:34;;;;;;;5.23;2.80;;;12.10;74.80;;;;;;4994783;28;20453;-73
2023/03/31 03:06:26;;;;;;;13.73;2.90;;;12.10;74.60;;;;;;4987711;28;20434;-72
2023/03/31 03:09:17;;;;;;;9.93;2.83;;;12.00;74.80;;;;;;4996275;28;20477;-71
2023/03/31 03:11:49;;;;;;;13.23;2.90;;;12.00;75.10;;;;;;4985816;28;20545;-72
2023/03/31 03:14:43;;;;;;;5.67;2.70;;;12.00;75.50;;;;;;4990180;28;20437;-72
2023/03/31 03:17:25;;;;;;;7.67;3.13;;;12.00;75.70;;;;;;4997235;28;20449;-72
2023/03/31 03:19:57;;;;;;;4.87;2.60;;;12.10;75.70;;;;;;4992573;28;20421;-71
2023/03/31 03:22:23;;;;;;;6.53;2.90;;;12.00;75.80;;;;;;4990307;28;20479;-72
2023/03/31 03:24:50;;;;;;;10.03;3.20;;;12.00;75.90;;;;;;4990623;28;20417;-73
2023/03/31 03:27:16;;;;;;;4.70;3.10;;;11.90;76.10;;;;;;4997305;28;20346;-73
2023/03/31 03:29:42;;;;;;;5.73;3.23;;;11.80;76.50;;;;;;4993947;28;20493;-72
2023/03/31 03:32:08;;;;;;;6.33;3.17;;;11.80;76.50;;;;;;4990273;28;20999;-73
2023/03/31 03:34:34;;;;;;;6.37;3.23;;;11.80;76.20;;;;;;4997098;28;20186;-72
2023/03/31 03:37:00;;;;;;;6.40;3.20;;;11.60;76.80;;;;;;5002342;28;20442;-72
2023/03/31 03:39:25;;;;;;;5.03;3.10;;;11.70;77.00;;;;;;4995559;28;20221;-72
2023/03/31 03:41:51;;;;;;;5.27;2.77;;;11.70;77.10;;;;;;4995258;28;20198;-71
2023/03/31 03:44:16;;;;;;;7.10;2.60;;;11.70;77.40;;;;;;4997052;28;20214;-72
2023/03/31 03:46:42;;;;;;;11.47;3.13;;;11.70;77.30;;;;;;5001016;28;20175;-72
2023/03/31 03:49:07;;;;;;;3.60;2.80;;;11.70;77.40;;;;;;4997656;28;20202;-72
2023/03/31 03:51:33;;;;;;;9.57;3.20;;;11.70;77.80;;;;;;4997948;28;20612;-73
2023/03/31 03:53:59;;;;;;;9.90;3.77;;;11.60;77.70;;;;;;4990799;28;20206;-72
2023/03/31 03:56:25;;;;;;;8.27;3.80;;;11.60;78.00;;;;;;5013032;28;20534;-72
2023/03/31 03:58:50;;;;;;;5.40;3.30;;;11.60;78.00;;;;;;4991211;28;20218;-72
2023/03/31 04:01:16;;;;;;;8.63;3.80;;;11.60;77.70;;;;;;4992532;28;20831;-72
2023/03/31 04:03:43;;;;;;;5.47;2.60;;;11.60;77.60;;;;;;4995579;28;20241;-73
2023/03/31 04:06:08;;;;;;;8.57;3.20;;;11.60;78.00;;;;;;4992321;28;20445;-72
2023/03/31 04:08:34;;;;;;;5.90;3.27;;;11.60;78.40;;;;;;4991988;28;20422;-73
2023/03/31 04:11:00;;;;;;;6.43;3.20;;;11.50;78.30;;;;;;4993992;28;20201;-72
2023/03/31 04:13:26;;;;;;;5.73;3.77;;;11.40;78.90;;;;;;5001348;28;20221;-73
2023/03/31 04:15:51;;;;;;;6.93;3.10;;;11.40;79.20;;;;;;4997523;28;20947;-72
2023/03/31 04:18:23;;;;;;;9.40;2.90;;;11.30;79.20;;;;;;4996886;28;20197;-75
2023/03/31 04:21:04;;;;;;;10.70;4.17;;;11.30;79.50;;;;;;4991340;28;21000;-74
2023/03/31 04:23:41;;;;;;;9.00;3.90;;;11.20;79.60;;;;;;4992035;28;20552;-74
2023/03/31 04:26:10;;;;;;;9.13;4.30;;;11.20;79.60;;;;;;4998144;28;20423;-74
2023/03/31 04:28:37;;;;;;;7.00;4.00;;;11.20;79.60;;;;;;4990757;28;20421;-74
2023/03/31 04:31:05;;;;;;;10.20;4.07;;;11.30;79.50;;;;;;4992538;28;20449;-73
2023/03/31 04:33:33;;;;;;;8.07;4.30;;;11.40;78.70;;;;;;4994191;28;20476;-73
2023/03/31 04:36:05;;;;;;;9.13;4.43;;;11.40;78.40;;;;;;4995972;28;20560;-71
2023/03/31 04:38:32;;;;;;;13.03;4.60;;;11.50;78.10;;;;;;4998405;28;20521;-75
2023/03/31 04:40:58;;;;;;;8.33;4.27;;;11.60;77.80;;;;;;5008071;28;20516;-72
2023/03/31 04:43:24;;;;;;;8.47;4.10;;;11.60;77.40;;;;;;5006863;28;20468;-73
2023/03/31 04:45:49;;;;;;;7.13;4.07;;;11.60;77.30;;;;;;5012488;28;20201;-71
2023/03/31 04:48:15;;;;;;;9.43;4.50;;;11.60;77.40;;;;;;5007255;28;20216;-72
2023/03/31 04:50:41;;;;;;;8.57;4.30;;;11.70;77.30;;;;;;5007964;28;20262;-73
2023/03/31 04:53:07;;;;;;;7.30;4.10;;;11.80;77.10;;;;;;4997674;28;20521;-72
2023/03/31 04:55:33;;;;;;;11.37;4.33;;;11.80;77.00;;;;;;5000449;28;20943;-75
2023/03/31 04:57:59;;;;;;;9.00;4.13;;;11.80;77.00;;;;;;4988936;28;20200;-73
2023/03/31 05:00:25;;;;;;;10.30;4.80;;;11.80;77.10;;;;;;4995782;28;21213;-72
2023/03/31 05:02:51;;;;;;;9.83;4.10;;;11.80;77.30;;;;;;4988692;28;20289;-74
2023/03/31 05:05:17;;;;;;;12.37;6.20;;;11.70;77.10;;;;;;4995639;28;20203;-72
2023/03/31 05:07:43;;;;;;;15.70;5.73;;;11.70;77.10;;;;;;4990859;28;20836;-74
2023/03/31 05:10:09;;;;;;;6.93;4.37;;;11.80;76.70;;;;;;4991197;28;20213;-72
2023/03/31 05:12:38;;;;;;;7.87;4.87;;;11.90;76.40;;;;;;4988104;28;20895;-73
2023/03/31 05:15:05;;;;;;;9.70;4.30;;;11.90;76.50;;;;;;4990735;28;20460;-73
2023/03/31 05:17:32;;;;;;;14.77;5.47;;;11.90;77.10;;;;;;4989873;28;20488;-75
2023/03/31 05:19:58;;;;;;;11.03;4.37;;;11.80;77.80;;;;;;4995462;28;20472;-73
2023/03/31 05:22:24;;;;;;;10.97;4.67;;;11.60;79.20;;;;;;4995287;28;20484;-72
2023/03/31 05:24:49;;;;;;;11.83;5.40;;;11.40;80.80;;;;;;4997195;28;20516;-73
2023/03/31 05:27:15;;;;;;;15.20;5.30;;;11.20;82.10;;;;;;4995007;28;20506;-73
2023/03/31 05:29:41;;;;;;;11.80;5.50;;;10.90;83.80;;;;;;4994647;28;20191;-74
2023/03/31 05:32:06;;;;;;;10.50;5.90;;;10.70;85.20;;;;;;4990653;28;20214;-71
2023/03/31 05:34:32;;;;;;;15.33;7.20;;;10.50;86.80;;;;;;4999981;28;20753;-72
2023/03/31 05:36:58;;;;;;;10.00;5.90;;;10.40;87.60;;;;;;4993862;28;20681;-73
2023/03/31 05:39:23;;;;;;;13.97;5.67;;;10.30;88.60;;;;;;4994802;28;20198;-74
2023/03/31 05:41:49;;;;;;;8.60;5.43;;;10.30;89.20;;;;;;4993576;28;20256;-70
2023/03/31 05:44:15;;;;;;;11.60;5.53;;;10.20;89.50;;;;;;4994834;28;20437;-71
2023/03/31 05:46:41;;;;;;;11.83;5.60;;;10.30;90.00;;;;;;4999661;28;20179;-73
2023/03/31 05:49:07;;;;;;;9.97;5.57;;;10.30;90.40;;;;;;4990808;28;20295;-73
2023/03/31 05:51:33;;;;;;;15.00;5.87;;;10.30;90.70;;;;;;4994506;28;20516;-73
2023/03/31 05:53:59;;;;;;;12.80;6.70;;;10.40;90.90;;;;;;4992061;28;20674;-72
2023/03/31 05:56:26;;;;;;;17.00;7.03;;;10.40;91.00;;;;;;4998100;28;20436;-72
2023/03/31 05:58:52;;;;;;;12.33;6.80;;;10.40;91.30;;;;;;4993854;28;20221;-73
2023/03/31 06:01:22;;;;;;;10.50;6.00;;;10.50;91.50;;;;;;4993984;28;20516;-72
2023/03/31 06:03:48;;;;;;;11.40;6.73;;;10.50;91.50;;;;;;4993334;28;20532;-73
2023/03/31 06:06:15;;;;;;;13.17;6.70;;;10.60;91.60;;;;;;4998428;28;20438;-74
2023/03/31 06:08:42;;;;;;;14.00;7.53;;;10.60;91.60;;;;;;4997987;28;20426;-73
2023/03/31 06:11:13;;;;;;;14.50;8.57;;;10.60;91.60;;;;;;4999034;28;20452;-74
2023/03/31 06:13:39;;;;;;;15.63;6.83;;;10.70;91.70;;;;;;4994604;28;20477;-73
2023/03/31 06:16:06;;;;;;;16.90;7.90;;;10.70;91.70;;;;;;4997044;28;20481;-73
2023/03/31 06:18:33;;;;;;;10.60;6.80;;;10.70;91.70;;;;;;4991631;28;20425;-72
2023/03/31 06:21:00;;;;;;;11.33;6.97;;;10.70;91.80;;;;;;4993036;28;20520;-73
2023/03/31 06:23:26;;;;;;;13.13;6.90;;;10.70;91.70;;;;;;4987044;28;21012;-73
2023/03/31 06:25:52;;;;;;;12.50;6.07;;;10.70;91.80;;;;;;4992518;28;20421;-74
2023/03/31 06:28:19;;;;;;;16.00;6.80;;;10.80;91.80;;;;;;4992306;28;20436;-73
2023/03/31 06:30:45;;;;;;;12.97;7.00;;;10.80;91.80;;;;;;4991619;28;20448;-73
2023/03/31 06:33:10;;;;;;;10.57;6.20;;;10.80;91.60;;;;;;4994747;28;21316;-72
2023/03/31 06:35:40;;;;;;;13.03;6.23;;;10.80;91.50;;;;;;4992206;28;20190;-72
2023/03/31 06:38:06;;;;;;;9.67;6.67;;;10.80;91.50;;;;;;4991635;28;20655;-73
2023/03/31 06:40:32;;;;;;;17.77;7.10;;;10.90;91.40;;;;;;4992006;28;20462;-74
2023/03/31 06:42:58;;;;;;;12.63;6.83;;;10.90;91.40;;;;;;4991932;28;20473;-73
2023/03/31 06:45:23;;;;;;;15.20;6.80;;;10.80;91.20;;;;;;4993773;28;20426;-72
2023/03/31 06:47:49;;;;;;;13.90;7.03;;;10.80;91.00;;;;;;4998500;28;20191;-73
2023/03/31 06:50:15;;;;;;;11.77;6.90;;;10.80;90.90;;;;;;4995502;28;20182;-72
2023/03/31 06:52:40;;;;;;;13.73;6.93;;;10.80;90.90;;;;;;4990996;28;20227;-72
2023/03/31 06:55:08;;;;;;;18.07;8.33;;;10.80;91.00;;;;;;4992471;28;20202;-72
2023/03/31 06:57:34;;;;;;;16.10;7.30;;;10.80;91.00;;;;;;4991727;28;20182;-73
2023/03/31 07:00:00;;;;;;;20.60;7.80;;;10.70;91.10;;;;;;4993864;28;20947;-73
2023/03/31 07:02:26;;;;;;;10.43;7.10;;;10.70;91.20;;;;;;4993939;28;20488;-72
2023/03/31 07:04:51;;;;;;;13.77;6.63;;;10.60;91.20;;;;;;4993206;28;20461;-72
2023/03/31 07:07:17;;;;;;;13.70;7.20;;;10.40;91.30;;;;;;4992866;28;20480;-73
2023/03/31 07:09:42;;;;;;;21.33;7.27;;;10.40;91.60;;;;;;4994233;28;20202;-72
2023/03/31 07:12:09;;;;;;;16.20;7.50;;;10.30;91.90;;;;;;4990839;28;21066;-74
2023/03/31 07:14:35;;;;;;;12.07;6.60;;;10.20;91.90;;;;;;4988270;28;20924;-74
2023/03/31 07:17:01;;;;;;;9.87;5.43;;;10.20;92.20;;;;;;4993345;28;20433;-74
2023/03/31 07:19:27;;;;;;;12.73;6.13;;;10.20;92.20;;;;;;4997064;28;20452;-75
2023/03/31 07:21:53;;;;;;;8.57;4.10;;;10.10;92.10;;;;;;5002451;28;20544;-73
2023/03/31 07:24:18;;;;;;;8.73;4.83;;;10.10;92.20;;;;;;4995516;28;20182;-74
2023/03/31 07:26:44;;;;;;;9.80;4.43;;;10.10;91.30;;;;;;4998512;28;20414;-73
2023/03/31 07:29:10;;;;;;;5.07;3.90;;;10.20;90.50;;;;;;4997692;28;20619;-74
2023/03/31 07:31:35;;;;;;;7.77;3.40;;;10.30;90.10;;;;;;4997016;28;20186;-74
2023/03/31 07:34:02;;;;;;;5.30;3.60;;;10.30;89.90;;;;;;4994593;28;20637;-74
2023/03/31 07:36:29;;;;;;;5.30;3.33;;;10.40;89.20;;;;;;4995194;28;20185;-76
2023/03/31 07:38:55;;;;;;;5.67;3.57;;;10.50;88.70;;;;;;4995195;28;20406;-73
2023/03/31 07:41:21;;;;;;;6.77;3.07;;;10.50;88.10;;;;;;4989310;28;20536;-75
2023/03/31 07:43:47;;;;;;;8.17;3.30;;;10.50;87.40;;;;;;4989121;28;20232;-75
2023/03/31 07:46:22;;;;;;;4.63;2.20;;;10.60;87.60;;;;;;4990003;28;20421;-74
2023/03/31 07:48:48;;;;;;;4.70;2.30;;;10.60;86.50;;;;;;4993148;28;20505;-75
2023/03/31 07:51:16;;;;;;;3.83;2.40;;;10.70;85.60;;;;;;4992727;28;20493;-73
2023/03/31 07:53:42;;;;;;;11.17;3.43;;;10.80;85.00;;;;;;4997945;28;20464;-75
2023/03/31 07:56:07;;;;;;;2.60;1.90;;;10.90;84.30;;;;;;4996330;28;20426;-73
2023/03/31 07:58:33;;;;;;;3.37;1.80;;;10.90;83.60;;;;;;4993907;28;20217;-74
2023/03/31 08:00:59;;;;;;;3.50;1.73;;;10.90;83.00;;;;;;4992701;28;20206;-75
2023/03/31 08:03:25;;;;;;;3.20;1.87;;;11.00;83.30;;;;;;4990467;28;20202;-75
2023/03/31 08:05:51;;;;;;;3.93;1.40;;;11.00;81.70;;;;;;4992654;28;20438;-73
2023/03/31 08:08:17;;;;;;;3.07;1.83;;;11.10;82.10;;;;;;4991301;28;20422;-73
2023/03/31 08:10:42;;;;;;;2.77;1.60;;;11.10;82.40;;;;;;4991508;28;20445;-72
2023/03/31 08:13:08;;;;;;;1.70;1.40;;;11.10;82.20;;;;;;4992412;28;20207;-72
2023/03/31 08:15:34;;;;;;;3.17;1.60;;;11.20;82.40;;;;;;4990181;28;20182;-73
2023/03/31 08:17:59;;;;;;;4.43;1.57;;;11.20;81.80;;;;;;4990712;28;20185;-73
2023/03/31 08:20:25;;;;;;;2.10;1.40;;;11.20;81.90;;;;;;4990762;28;20191;-74
2023/03/31 08:22:51;;;;;;;3.00;1.57;;;11.30;82.40;;;;;;4991228;28;20212;-73
2023/03/31 08:25:17;;;;;;;2.30;1.40;;;11.40;81.80;;;;;;4992604;28;20186;-73
2023/03/31 08:27:42;;;;;;;2.63;1.53;;;11.40;81.40;;;;;;4994387;28;20179;-72
2023/03/31 08:30:10;;;;;;;1.53;1.10;;;11.50;81.20;;;;;;4990901;28;20485;-74
2023/03/31 08:32:36;;;;;;;2.50;1.50;;;11.60;81.50;;;;;;4991120;28;20301;-73
2023/03/31 08:35:02;;;;;;;4.43;1.60;;;11.70;80.80;;;;;;4990718;28;20422;-74
2023/03/31 08:37:27;;;;;;;3.20;1.50;;;11.80;80.30;;;;;;4991811;28;20789;-73
2023/03/31 08:39:56;;;;;;;3.60;1.60;;;11.90;80.20;;;;;;4987895;28;20508;-73
2023/03/31 08:42:52;;;;;;;4.20;1.50;;;12.00;80.20;;;;;;4987669;28;20289;-74
2023/03/31 08:45:21;;;;;;;2.53;1.47;;;12.20;80.20;;;;;;4989568;28;20491;-75
2023/03/31 08:47:52;;;;;;;4.13;1.70;;;12.30;79.70;;;;;;4991898;28;20452;-73
2023/03/31 08:50:25;;;;;;;4.00;2.13;;;12.50;78.60;;;;;;4990540;28;20479;-73
2023/03/31 08:52:56;;;;;;;3.57;1.67;;;12.60;78.30;;;;;;4989821;28;20481;-73
2023/03/31 08:55:33;;;;;;;8.27;2.00;;;12.80;77.30;;;;;;4995458;28;20443;-72
2023/03/31 08:58:26;;;;;;;2.37;1.90;;;12.90;76.40;;;;;;4989704;28;20421;-74
2023/03/31 09:00:58;;;;;;;4.57;2.20;;;13.10;76.10;;;;;;4994760;28;20464;-74
2023/03/31 09:04:05;;;;;;;3.90;1.97;;;13.30;75.80;;;;;;4992944;28;20853;-73
2023/03/31 09:06:52;;;;;;;5.37;1.90;;;13.40;74.80;;;;;;4998155;28;20931;-74
2023/03/31 09:09:37;;;;;;;6.20;2.20;;;13.40;73.00;;;;;;4999524;28;20472;-74
2023/03/31 09:12:13;;;;;;;4.70;1.67;;;13.50;73.70;;;;;;4996031;28;20477;-73
2023/03/31 09:14:51;;;;;;;7.10;2.10;;;13.60;73.60;;;;;;4995430;28;20417;-73
2023/03/31 09:17:27;;;;;;;4.23;1.80;;;13.70;73.00;;;;;;4995564;28;20748;-72
2023/03/31 09:19:55;;;;;;;6.37;2.30;;;13.90;72.60;;;;;;4994699;28;20424;-73
2023/03/31 09:22:30;;;;;;;6.50;1.60;;;13.90;70.40;;;;;;4993584;28;21052;-73
2023/03/31 09:25:12;;;;;;;3.97;1.53;;;14.00;69.80;;;;;;4995755;28;20834;-74
2023/03/31 09:27:41;;;;;;;6.70;2.00;;;14.10;69.70;;;;;;4987908;28;20412;-73
2023/03/31 09:30:27;;;;;;;4.30;1.80;;;14.20;69.10;;;;;;4993920;28;20420;-73
2023/03/31 09:33:15;;;;;;;3.30;1.70;;;14.40;68.80;;;;;;4995423;28;20449;-73
2023/03/31 09:35:41;;;;;;;3.60;1.50;;;14.50;68.00;;;;;;4996944;28;20835;-74
2023/03/31 09:38:11;;;;;;;3.33;1.53;;;14.60;67.50;;;;;;4989278;28;20438;-73
2023/03/31 09:40:37;;;;;;;2.83;1.60;;;14.50;67.00;;;;;;4989737;28;20912;-73
2023/03/31 09:43:21;;;;;;;6.20;1.60;;;14.50;67.90;;;;;;4994007;28;21048;-73
2023/03/31 09:45:47;;;;;;;3.37;1.40;;;14.50;67.90;;;;;;4993484;28;20425;-73
2023/03/31 09:48:20;;;;;;;2.90;1.40;;;14.40;67.70;;;;;;4993417;28;20422;-73
2023/03/31 09:50:56;;;;;;;4.53;1.70;;;14.20;68.00;;;;;;4989486;28;20432;-74
2023/03/31 09:53:37;;;;;;;3.60;1.60;;;14.10;68.90;;;;;;4992676;28;20473;-72
2023/03/31 09:56:07;;;;;;;4.80;2.00;;;14.20;68.90;;;;;;4996792;28;20440;-73
2023/03/31 09:58:45;;;;;;;4.13;1.43;;;14.30;67.90;;;;;;4991285;28;20418;-74
2023/03/31 10:01:13;;;;;;;5.57;1.77;;;14.40;67.90;;;;;;4992697;28;20461;-74
2023/03/31 10:03:52;;;;;;;8.97;1.53;;;14.40;67.50;;;;;;4991037;28;20466;-74
2023/03/31 10:06:19;;;;;;;6.53;1.90;;;14.60;66.60;;;;;;4993284;28;20441;-73
2023/03/31 10:08:48;;;;;;;4.97;1.50;;;14.70;66.40;;;;;;4993310;28;20557;-74
2023/03/31 10:11:14;;;;;;;5.60;1.67;;;14.90;65.10;;;;;;4993040;28;20426;-73
2023/03/31 10:13:58;;;;;;;4.87;1.77;;;14.90;64.10;;;;;;4991103;28;21003;-74
2023/03/31 10:16:46;;;;;;;5.00;2.00;;;14.90;64.10;;;;;;4998501;28;20896;-73
2023/03/31 10:19:25;;;;;;;7.63;2.17;;;14.80;64.10;;;;;;4997584;28;20436;-73
2023/03/31 10:22:11;;;;;;;3.90;1.63;;;14.90;64.20;;;;;;4996617;28;20492;-76
2023/03/31 10:24:40;;;;;;;4.07;2.00;;;15.00;63.70;;;;;;4997397;28;20419;-74
2023/03/31 10:27:22;;;;;;;4.63;1.80;;;15.10;63.40;;;;;;4987644;28;20801;-75
2023/03/31 10:29:54;;;;;;;4.53;2.00;;;15.20;62.60;;;;;;4993453;28;20425;-74
2023/03/31 10:32:32;;;;;;;6.57;1.80;;;15.30;61.60;;;;;;4993893;28;20468;-74
2023/03/31 10:35:34;;;;;;;6.90;1.90;;;15.30;60.70;;;;;;4996013;28;20928;-74
2023/03/31 10:38:04;;;;;;;5.83;2.30;;;15.50;60.70;;;;;;4988999;28;20523;-74
2023/03/31 10:40:32;;;;;;;5.40;1.90;;;15.60;61.20;;;;;;4997225;28;20763;-74
2023/03/31 10:43:17;;;;;;;4.03;1.77;;;15.80;59.10;;;;;;4996874;28;20461;-73
2023/03/31 10:45:51;;;;;;;7.13;1.50;;;15.50;58.80;;;;;;4996075;28;20419;-73
2023/03/31 10:48:27;;;;;;;4.40;1.60;;;15.50;59.50;;;;;;4994934;28;20446;-72
2023/03/31 10:50:58;;;;;;;4.37;1.60;;;15.60;59.20;;;;;;4992926;28;20835;-74
2023/03/31 10:53:24;;;;;;;10.53;2.20;;;15.70;58.40;;;;;;4991608;28;20524;-75
2023/03/31 10:56:36;;;;;;;5.93;2.20;;;15.90;57.80;;;;;;4992933;28;20424;-74
2023/03/31 10:59:26;;;;;;;5.33;1.60;;;15.90;56.80;;;;;;4935028;28;20727;-74
2023/03/31 11:02:33;;;;;;;4.40;1.77;;;15.60;57.40;;;;;;4949046;28;20554;-75
2023/03/31 11:05:21;;;;;;;4.97;1.60;;;15.70;55.70;;;;;;4939762;28;20449;-75
2023/03/31 11:07:58;;;;;;;3.40;1.50;;;15.70;55.40;;;;;;4949086;28;20431;-75
2023/03/31 11:10:45;;;;;;;4.80;1.70;;;15.60;55.60;;;;;;4947620;28;20446;-74
2023/03/31 11:13:32;;;;;;;6.37;1.60;;;15.50;56.80;;;;;;4932369;28;20875;-74
2023/03/31 11:16:25;;;;;;;4.23;1.73;;;15.40;56.80;;;;;;4954625;28;20426;-74
2023/03/31 11:18:54;;;;;;;5.13;1.90;;;15.10;59.70;;;;;;4946343;28;20424;-74
2023/03/31 11:21:30;;;;;;;8.10;1.60;;;14.60;60.60;;;;;;4949454;28;20471;-74
2023/03/31 11:24:12;;;;;;;9.67;1.90;;;14.40;63.50;;;;;;4947932;28;20602;-73
2023/03/31 11:27:15;;;;;;;4.87;1.57;;;14.00;68.80;;;;;;4951181;28;20427;-71
2023/03/31 11:29:57;;;;;;;5.00;1.17;;;11.70;77.30;;;;;;4967456;28;20445;-73
2023/03/31 11:32:47;;;;;;;2.60;0.97;;;10.40;80.60;;;;;;4991768;28;20480;-72
2023/03/31 11:35:53;;;;;;;4.60;1.00;;;9.90;81.80;;;;;;4993003;28;20425;-72
2023/03/31 11:38:43;;;;;;;4.17;1.10;;;9.70;82.40;;;;;;4994820;28;20994;-73
2023/03/31 11:41:35;;;;;;;1.27;1.10;;;9.70;83.40;;;;;;4988028;28;20484;-72
2023/03/31 11:44:08;;;;;;;3.20;1.07;;;9.70;83.30;;;;;;4992771;28;20496;-73
2023/03/31 11:46:33;;;;;;;1.20;0.80;;;9.80;82.70;;;;;;4991390;28;20445;-73
2023/03/31 11:49:10;;;;;;;2.90;1.00;;;9.90;80.90;;;;;;4995296;28;20449;-72
2023/03/31 11:51:56;;;;;;;2.17;0.90;;;10.00;80.80;;;;;;4992698;28;20260;-72
2023/03/31 11:54:32;;;;;;;1.10;0.70;;;10.00;79.30;;;;;;4998948;28;20441;-72
2023/03/31 11:57:02;;;;;;;2.83;1.17;;;10.00;79.50;;;;;;4986480;28;20417;-72
2023/03/31 11:59:30;;;;;;;2.33;0.90;;;10.10;79.60;;;;;;4997395;28;20425;-72
2023/03/31 12:02:20;;;;;;;1.73;0.70;;;10.30;79.60;;;;;;5000471;28;20461;-71
2023/03/31 12:04:50;;;;;;;3.50;1.03;;;10.40;79.00;;;;;;4998603;28;20430;-72
2023/03/31 12:07:43;;;;;;;1.30;0.80;;;10.60;79.00;;;;;;4998525;28;20837;-71
2023/03/31 12:10:20;;;;;;;1.53;0.70;;;11.10;79.00;;;;;;4995622;28;20497;-72
2023/03/31 12:12:58;;;;;;;2.10;0.90;;;11.50;75.90;;;;;;4991567;28;20465;-73
2023/03/31 12:15:26;;;;;;;1.40;0.90;;;11.90;74.20;;;;;;5001109;28;20472;-71
2023/03/31 12:17:59;;;;;;;2.20;1.10;;;12.30;73.60;;;;;;4991332;28;20904;-72
2023/03/31 12:20:36;;;;;;;1.73;1.10;;;12.60;71.70;;;;;;4992456;28;20453;-71
2023/03/31 12:23:05;;;;;;;1.30;1.27;;;12.40;71.40;;;;;;4992232;28;20452;-72
2023/03/31 12:25:57;;;;;;;1.20;0.83;;;12.40;71.10;;;;;;4989322;28;20437;-72
2023/03/31 12:28:23;;;;;;;1.83;0.90;;;12.50;70.70;;;;;;4983208;28;20411;-72
2023/03/31 12:30:49;;;;;;;2.20;0.87;;;12.60;71.30;;;;;;4996246;28;20437;-72
2023/03/31 12:33:24;;;;;;;5.10;1.10;;;12.70;69.70;;;;;;4989178;28;20836;-73
2023/03/31 12:36:28;;;;;;;1.60;0.83;;;12.90;69.10;;;;;;4994016;28;20185;-72
2023/03/31 12:39:13;;;;;;;3.47;1.00;;;13.10;68.80;;;;;;4991246;28;20421;-72
2023/03/31 12:42:11;;;;;;;2.73;1.00;;;13.30;69.10;;;;;;4992685;28;20781;-72
2023/03/31 12:44:45;;;;;;;7.03;1.13;;;13.60;68.80;;;;;;4989156;28;20462;-73
2023/03/31 12:47:17;;;;;;;2.60;0.80;;;13.70;67.60;;;;;;4994111;28;20417;-73
2023/03/31 12:49:58;;;;;;;1.37;0.90;;;13.70;66.40;;;;;;4997578;28;20435;-72
2023/03/31 12:52:40;;;;;;;7.40;0.87;;;13.80;67.20;;;;;;4994497;28;20494;-72
2023/03/31 12:55:24;;;;;;;1.43;0.93;;;14.00;66.40;;;;;;4996497;28;20436;-72
2023/03/31 12:57:50;;;;;;;2.97;1.50;;;14.10;67.20;;;;;;4986755;28;20829;-72
2023/03/31 13:00:24;;;;;;;3.90;0.90;;;14.30;66.40;;;;;;4993087;28;20425;-72
2023/03/31 13:03:29;;;;;;;3.70;1.37;;;14.60;66.40;;;;;;4986563;28;20206;-73
2023/03/31 13:05:54;;;;;;;2.30;1.10;;;14.30;65.00;;;;;;4990370;28;20529;-72
2023/03/31 13:08:59;;;;;;;6.73;1.33;;;14.20;65.70;;;;;;4985942;28;20507;-72
2023/03/31 13:11:37;;;;;;;2.80;1.30;;;14.30;65.60;;;;;;4990789;28;20274;-72
2023/03/31 13:14:12;;;;;;;2.23;1.20;;;14.40;65.30;;;;;;4984360;28;20467;-73